Tropical Cyclones
[Index]
Main Index Home Page Stock Weather Photos Extreme Storms Discussion Storm News and Storm Chasing Reports Tropical Cyclones / Hurricanes / Typhoons Weather Data and Links Wild Fires / Bushfires Weather Observation Techniques Weather Picture Catalogue Tornado Pictures and Reports Stock Video Footage and DVDs for sale
Season 2006-2007 Tropical Cyclone ARTHUR Track Map
Season 2006-2007 Summaries (Operational Data): [AU] [SIO] [SPAC] [SH]
<<- Previous TC | 2006-2007 Season | Next TC ->>

click for intensity scale information  Lat/long Grid: Show Hide

 Date Labels: Show Hide

Operational Tropical Cyclone Data : JTWC Advisories

Name: ARTHUR
Number: 0709

21 Jan 2007 07:00 UTC to 28 Jan 2007 18:00 UTC

    date/time    lat    long     hPa   cat  kts
2007-01-21 07   11.9   176.4W   1002         25          
2007-01-21 21   12.3   176.1W   1000         25          
2007-01-22 06   12.8   175.8W   1000         25          
2007-01-22 12   12.8   175.7W    999         25          
2007-01-22 18   12.4   175.2W    998         30          
2007-01-23 00   12.4   174.5W    998         30          
2007-01-23 06   12.5   174.1W    998         30          
2007-01-23 12   13.0   173.5W    998         30          
2007-01-23 18   13.0   172.5W    998         30          
2007-01-24 00   14.0   169.7W    999         30          
2007-01-24 06   14.4   167.7W    999         30          
2007-01-24 09   14.5   166.8W    998         30          
2007-01-24 12   14.7   165.6W    995    1    40          
2007-01-24 18   15.1   162.9W    980    2    55          
2007-01-25 00   15.7   160.8W    975    2    60          
2007-01-25 06   16.2   159.5W    975    2    60          
2007-01-25 12   16.7   157.8W    987    1    45          
2007-01-25 18   18.2   155.1W    990    1    40          
2007-01-26 00   19.7   153.9W    990    1    45          
2007-01-26 06   20.8   153.0W    985    2    50          
2007-01-26 12   22.5   151.5W    985    2    50          
2007-01-26 18   24.5   148.7W    985    2    50          
2007-01-26 23   26.1   148.5W    980    2    55          
2007-01-27 05   28.0   147.0W    985    2    50          
2007-01-27 12   31.0   145.0W    990    1    45          
2007-01-27 18   33.0   144.0W    990    2    50          
2007-01-28 00   35.0   142.0W    994    1    45          
2007-01-28 06   38.0   139.0W   1000    1    35          
2007-01-28 18   40.0   130.0W    998    1    35          
Winds are 10-min average.

Tropical cyclone tracks developed by Michael Bath using operational warnings and advisories and Google Maps.


[Australian Severe Weather index] [Copyright Notice] [Email Contacts] [Search This Site] [Privacy Policy]
Document: tropical_cyclone_arthur.htm Updated: 28 May 2013